sensor_id;sensor_type;location;lat;lon;timestamp;pressure;altitude;pressure_sealevel;temperature;humidity
55916;BME280;41826;53.246;-6.670;2023-05-18T00:01:34;99904.31;;;12.98;100.00
55916;BME280;41826;53.246;-6.670;2023-05-18T00:03:59;99921.84;;;13.29;100.00
55916;BME280;41826;53.246;-6.670;2023-05-18T00:06:26;99957.63;;;13.23;100.00
55916;BME280;41826;53.246;-6.670;2023-05-18T00:08:52;99966.34;;;13.23;100.00
55916;BME280;41826;53.246;-6.670;2023-05-18T00:11:17;99951.84;;;13.28;100.00
55916;BME280;41826;53.246;-6.670;2023-05-18T00:13:43;99965.44;;;13.39;100.00
55916;BME280;41826;53.246;-6.670;2023-05-18T00:16:08;99976.47;;;12.97;100.00
55916;BME280;41826;53.246;-6.670;2023-05-18T00:18:36;99960.00;;;12.95;100.00
55916;BME280;41826;53.246;-6.670;2023-05-18T00:21:01;99941.31;;;13.05;100.00
55916;BME280;41826;53.246;-6.670;2023-05-18T00:23:30;99965.16;;;13.34;100.00
55916;BME280;41826;53.246;-6.670;2023-05-18T00:26:00;99998.41;;;13.35;100.00
55916;BME280;41826;53.246;-6.670;2023-05-18T00:28:27;100005.72;;;13.25;100.00
55916;BME280;41826;53.246;-6.670;2023-05-18T00:30:53;99974.16;;;13.17;100.00
55916;BME280;41826;53.246;-6.670;2023-05-18T00:33:21;99962.41;;;13.05;100.00
55916;BME280;41826;53.246;-6.670;2023-05-18T00:35:47;99967.16;;;13.09;100.00
55916;BME280;41826;53.246;-6.670;2023-05-18T00:38:13;99941.97;;;12.84;100.00
55916;BME280;41826;53.246;-6.670;2023-05-18T00:40:42;99893.06;;;12.66;100.00
55916;BME280;41826;53.246;-6.670;2023-05-18T00:43:08;99864.47;;;12.40;100.00
55916;BME280;41826;53.246;-6.670;2023-05-18T00:45:34;99830.88;;;12.42;100.00
55916;BME280;41826;53.246;-6.670;2023-05-18T00:47:59;99815.66;;;12.52;100.00
55916;BME280;41826;53.246;-6.670;2023-05-18T00:50:24;99803.72;;;12.65;100.00
55916;BME280;41826;53.246;-6.670;2023-05-18T00:52:50;99811.44;;;12.66;100.00
55916;BME280;41826;53.246;-6.670;2023-05-18T00:55:16;99812.63;;;12.64;100.00
55916;BME280;41826;53.246;-6.670;2023-05-18T00:57:42;99801.97;;;12.57;100.00
55916;BME280;41826;53.246;-6.670;2023-05-18T01:00:09;99798.94;;;12.45;100.00
55916;BME280;41826;53.246;-6.670;2023-05-18T01:02:40;99795.97;;;12.48;100.00
55916;BME280;41826;53.246;-6.670;2023-05-18T01:05:10;99789.09;;;12.62;100.00
55916;BME280;41826;53.246;-6.670;2023-05-18T01:07:40;99794.69;;;12.44;100.00
55916;BME280;41826;53.246;-6.670;2023-05-18T01:10:09;99789.69;;;12.49;100.00
55916;BME280;41826;53.246;-6.670;2023-05-18T01:15:11;99789.66;;;12.34;100.00
55916;BME280;41826;53.246;-6.670;2023-05-18T01:17:58;99781.06;;;12.41;100.00
55916;BME280;41826;53.246;-6.670;2023-05-18T01:28:13;99804.84;;;12.85;100.00
55916;BME280;41826;53.246;-6.670;2023-05-18T01:30:41;99808.88;;;12.58;100.00
55916;BME280;41826;53.246;-6.670;2023-05-18T01:33:11;99814.03;;;12.51;100.00
55916;BME280;41826;53.246;-6.670;2023-05-18T01:35:38;99802.47;;;12.38;100.00
55916;BME280;41826;53.246;-6.670;2023-05-18T01:38:06;99785.91;;;12.52;100.00
55916;BME280;41826;53.246;-6.670;2023-05-18T01:41:07;99786.75;;;12.29;100.00
55916;BME280;41826;53.246;-6.670;2023-05-18T01:43:33;99780.50;;;12.07;100.00
55916;BME280;41826;53.246;-6.670;2023-05-18T01:46:39;99779.59;;;11.92;100.00
55916;BME280;41826;53.246;-6.670;2023-05-18T01:51:59;99782.25;;;11.92;100.00
55916;BME280;41826;53.246;-6.670;2023-05-18T01:54:26;99785.06;;;11.82;100.00
55916;BME280;41826;53.246;-6.670;2023-05-18T01:56:53;99788.56;;;11.75;100.00
55916;BME280;41826;53.246;-6.670;2023-05-18T01:59:20;99778.34;;;11.80;100.00
55916;BME280;41826;53.246;-6.670;2023-05-18T02:01:48;99781.25;;;11.93;100.00
55916;BME280;41826;53.246;-6.670;2023-05-18T02:04:13;99791.91;;;11.68;100.00
55916;BME280;41826;53.246;-6.670;2023-05-18T02:06:39;99792.91;;;11.67;100.00
55916;BME280;41826;53.246;-6.670;2023-05-18T02:09:04;99787.19;;;11.95;100.00
55916;BME280;41826;53.246;-6.670;2023-05-18T02:11:30;99788.81;;;11.96;100.00
55916;BME280;41826;53.246;-6.670;2023-05-18T02:13:56;99790.03;;;12.08;100.00
55916;BME280;41826;53.246;-6.670;2023-05-18T02:16:21;99786.22;;;11.88;100.00
55916;BME280;41826;53.246;-6.670;2023-05-18T02:18:47;99782.00;;;12.25;100.00
55916;BME280;41826;53.246;-6.670;2023-05-18T02:21:13;99790.63;;;12.19;100.00
55916;BME280;41826;53.246;-6.670;2023-05-18T02:23:41;99784.47;;;12.26;100.00
55916;BME280;41826;53.246;-6.670;2023-05-18T02:26:06;99784.28;;;12.51;100.00
55916;BME280;41826;53.246;-6.670;2023-05-18T02:28:32;99791.25;;;12.21;100.00
55916;BME280;41826;53.246;-6.670;2023-05-18T02:31:24;99788.34;;;12.16;100.00
55916;BME280;41826;53.246;-6.670;2023-05-18T02:33:53;99785.28;;;12.04;100.00
55916;BME280;41826;53.246;-6.670;2023-05-18T02:36:19;99790.03;;;11.77;100.00
55916;BME280;41826;53.246;-6.670;2023-05-18T02:38:47;99779.69;;;12.07;100.00
55916;BME280;41826;53.246;-6.670;2023-05-18T02:41:13;99788.56;;;12.06;100.00
55916;BME280;41826;53.246;-6.670;2023-05-18T02:43:38;99776.44;;;12.20;100.00
55916;BME280;41826;53.246;-6.670;2023-05-18T02:46:04;99788.75;;;12.04;100.00
55916;BME280;41826;53.246;-6.670;2023-05-18T02:48:29;99782.00;;;12.02;100.00
55916;BME280;41826;53.246;-6.670;2023-05-18T02:50:55;99785.44;;;12.10;100.00
55916;BME280;41826;53.246;-6.670;2023-05-18T02:53:21;99782.56;;;12.35;100.00
55916;BME280;41826;53.246;-6.670;2023-05-18T02:55:47;99805.75;;;12.17;100.00
55916;BME280;41826;53.246;-6.670;2023-05-18T02:58:16;99795.53;;;12.22;100.00
55916;BME280;41826;53.246;-6.670;2023-05-18T03:00:41;99789.50;;;12.13;100.00
55916;BME280;41826;53.246;-6.670;2023-05-18T03:03:06;99780.09;;;12.19;100.00
55916;BME280;41826;53.246;-6.670;2023-05-18T03:05:35;99783.53;;;12.19;100.00
55916;BME280;41826;53.246;-6.670;2023-05-18T03:08:01;99783.25;;;11.91;100.00
55916;BME280;41826;53.246;-6.670;2023-05-18T03:10:26;99782.97;;;11.78;100.00
55916;BME280;41826;53.246;-6.670;2023-05-18T03:12:52;99772.75;;;11.83;100.00
55916;BME280;41826;53.246;-6.670;2023-05-18T03:15:17;99777.16;;;11.59;100.00
55916;BME280;41826;53.246;-6.670;2023-05-18T03:17:44;99768.97;;;11.85;100.00
55916;BME280;41826;53.246;-6.670;2023-05-18T03:20:09;99769.44;;;11.89;100.00
55916;BME280;41826;53.246;-6.670;2023-05-18T03:22:41;99780.44;;;11.61;100.00
55916;BME280;41826;53.246;-6.670;2023-05-18T03:25:07;99794.31;;;11.47;100.00
55916;BME280;41826;53.246;-6.670;2023-05-18T03:27:32;99791.53;;;11.71;100.00
55916;BME280;41826;53.246;-6.670;2023-05-18T03:29:58;99799.47;;;11.63;100.00
55916;BME280;41826;53.246;-6.670;2023-05-18T03:32:24;99847.88;;;11.38;100.00
55916;BME280;41826;53.246;-6.670;2023-05-18T03:34:53;99868.56;;;11.41;100.00
55916;BME280;41826;53.246;-6.670;2023-05-18T03:37:19;99874.13;;;11.46;100.00
55916;BME280;41826;53.246;-6.670;2023-05-18T03:39:44;99865.91;;;11.49;100.00
55916;BME280;41826;53.246;-6.670;2023-05-18T03:42:10;99881.38;;;11.36;100.00
55916;BME280;41826;53.246;-6.670;2023-05-18T03:44:35;99883.88;;;11.21;100.00
55916;BME280;41826;53.246;-6.670;2023-05-18T03:47:01;99905.69;;;11.38;100.00
55916;BME280;41826;53.246;-6.670;2023-05-18T03:49:26;99911.59;;;11.32;100.00
55916;BME280;41826;53.246;-6.670;2023-05-18T03:51:54;99898.78;;;11.37;100.00
55916;BME280;41826;53.246;-6.670;2023-05-18T03:54:21;99913.59;;;11.21;100.00
55916;BME280;41826;53.246;-6.670;2023-05-18T03:56:46;99896.81;;;11.47;100.00
55916;BME280;41826;53.246;-6.670;2023-05-18T03:59:13;99892.53;;;11.46;100.00
55916;BME280;41826;53.246;-6.670;2023-05-18T04:01:38;99886.94;;;11.57;100.00
55916;BME280;41826;53.246;-6.670;2023-05-18T04:04:06;99887.91;;;11.56;100.00
55916;BME280;41826;53.246;-6.670;2023-05-18T04:06:32;99883.59;;;11.63;100.00
55916;BME280;41826;53.246;-6.670;2023-05-18T04:08:59;99896.00;;;11.38;100.00
55916;BME280;41826;53.246;-6.670;2023-05-18T04:11:31;99894.84;;;11.41;100.00
55916;BME280;41826;53.246;-6.670;2023-05-18T04:13:57;99902.59;;;11.26;100.00
55916;BME280;41826;53.246;-6.670;2023-05-18T04:16:25;99897.50;;;11.33;100.00
55916;BME280;41826;53.246;-6.670;2023-05-18T04:18:51;99889.44;;;11.42;100.00
55916;BME280;41826;53.246;-6.670;2023-05-18T04:21:17;99889.72;;;11.56;100.00
55916;BME280;41826;53.246;-6.670;2023-05-18T04:23:43;99882.63;;;11.56;100.00
55916;BME280;41826;53.246;-6.670;2023-05-18T04:26:09;99892.22;;;11.41;100.00
55916;BME280;41826;53.246;-6.670;2023-05-18T04:28:35;99899.00;;;11.27;100.00
55916;BME280;41826;53.246;-6.670;2023-05-18T04:31:01;99903.13;;;11.13;100.00
55916;BME280;41826;53.246;-6.670;2023-05-18T04:33:30;99901.94;;;11.32;100.00
55916;BME280;41826;53.246;-6.670;2023-05-18T04:35:55;99900.63;;;11.28;100.00
55916;BME280;41826;53.246;-6.670;2023-05-18T04:38:23;99896.81;;;11.39;100.00
55916;BME280;41826;53.246;-6.670;2023-05-18T04:40:49;99906.03;;;11.26;100.00
55916;BME280;41826;53.246;-6.670;2023-05-18T04:43:19;99912.31;;;11.17;100.00
55916;BME280;41826;53.246;-6.670;2023-05-18T04:45:47;99925.28;;;11.27;100.00
55916;BME280;41826;53.246;-6.670;2023-05-18T04:48:14;99929.69;;;11.18;100.00
55916;BME280;41826;53.246;-6.670;2023-05-18T04:50:41;99926.72;;;11.21;100.00
55916;BME280;41826;53.246;-6.670;2023-05-18T04:53:07;99914.09;;;11.25;100.00
55916;BME280;41826;53.246;-6.670;2023-05-18T04:55:33;99910.44;;;11.34;100.00
55916;BME280;41826;53.246;-6.670;2023-05-18T04:57:59;99910.13;;;11.37;100.00
55916;BME280;41826;53.246;-6.670;2023-05-18T05:00:26;99911.28;;;11.35;100.00
55916;BME280;41826;53.246;-6.670;2023-05-18T05:02:53;99907.16;;;11.40;100.00
55916;BME280;41826;53.246;-6.670;2023-05-18T05:05:23;99911.13;;;11.36;100.00
55916;BME280;41826;53.246;-6.670;2023-05-18T05:07:50;99891.88;;;11.44;100.00
55916;BME280;41826;53.246;-6.670;2023-05-18T05:10:17;99903.34;;;11.51;100.00
55916;BME280;41826;53.246;-6.670;2023-05-18T05:12:43;99922.16;;;11.15;100.00
55916;BME280;41826;53.246;-6.670;2023-05-18T05:15:09;99915.41;;;11.37;100.00
55916;BME280;41826;53.246;-6.670;2023-05-18T05:17:34;99910.28;;;11.44;100.00
55916;BME280;41826;53.246;-6.670;2023-05-18T05:20:00;99902.06;;;11.47;100.00
55916;BME280;41826;53.246;-6.670;2023-05-18T05:22:25;99923.47;;;11.19;100.00
55916;BME280;41826;53.246;-6.670;2023-05-18T05:24:51;99930.53;;;11.27;100.00
55916;BME280;41826;53.246;-6.670;2023-05-18T05:27:16;99933.84;;;11.04;100.00
55916;BME280;41826;53.246;-6.670;2023-05-18T05:29:45;99949.59;;;11.13;100.00
55916;BME280;41826;53.246;-6.670;2023-05-18T05:32:10;99958.47;;;11.12;100.00
55916;BME280;41826;53.246;-6.670;2023-05-18T05:34:37;99949.41;;;11.22;100.00
55916;BME280;41826;53.246;-6.670;2023-05-18T05:37:03;99938.56;;;11.25;100.00
55916;BME280;41826;53.246;-6.670;2023-05-18T05:39:28;99952.69;;;11.24;100.00
55916;BME280;41826;53.246;-6.670;2023-05-18T05:41:54;99946.91;;;11.29;100.00
55916;BME280;41826;53.246;-6.670;2023-05-18T05:44:19;99935.75;;;11.43;100.00
55916;BME280;41826;53.246;-6.670;2023-05-18T05:46:45;99953.97;;;11.45;100.00
55916;BME280;41826;53.246;-6.670;2023-05-18T05:49:11;99954.16;;;11.35;100.00
55916;BME280;41826;53.246;-6.670;2023-05-18T05:51:36;99950.84;;;11.41;100.00
55916;BME280;41826;53.246;-6.670;2023-05-18T05:54:02;99958.28;;;11.30;100.00
55916;BME280;41826;53.246;-6.670;2023-05-18T05:56:28;99972.06;;;11.23;100.00
55916;BME280;41826;53.246;-6.670;2023-05-18T05:58:53;99980.59;;;11.34;100.00
55916;BME280;41826;53.246;-6.670;2023-05-18T06:01:18;99990.78;;;11.12;100.00
55916;BME280;41826;53.246;-6.670;2023-05-18T06:03:45;99995.03;;;11.38;100.00
55916;BME280;41826;53.246;-6.670;2023-05-18T06:06:11;99983.22;;;11.34;100.00
55916;BME280;41826;53.246;-6.670;2023-05-18T06:08:37;100010.16;;;11.27;100.00
55916;BME280;41826;53.246;-6.670;2023-05-18T06:11:02;99994.72;;;11.41;100.00
55916;BME280;41826;53.246;-6.670;2023-05-18T06:13:28;99952.13;;;11.70;100.00
55916;BME280;41826;53.246;-6.670;2023-05-18T06:15:53;99958.38;;;11.61;100.00
55916;BME280;41826;53.246;-6.670;2023-05-18T06:18:22;99936.13;;;11.80;100.00
55916;BME280;41826;53.246;-6.670;2023-05-18T06:20:47;99935.13;;;11.89;100.00
55916;BME280;41826;53.246;-6.670;2023-05-18T06:23:13;99946.31;;;11.83;100.00
55916;BME280;41826;53.246;-6.670;2023-05-18T06:25:39;99949.91;;;11.82;100.00
55916;BME280;41826;53.246;-6.670;2023-05-18T06:28:04;99944.84;;;11.72;100.00
55916;BME280;41826;53.246;-6.670;2023-05-18T06:30:30;99947.63;;;11.87;100.00
55916;BME280;41826;53.246;-6.670;2023-05-18T06:32:55;99940.03;;;11.92;100.00
55916;BME280;41826;53.246;-6.670;2023-05-18T06:35:20;99922.22;;;12.10;100.00
55916;BME280;41826;53.246;-6.670;2023-05-18T06:37:46;99933.31;;;11.98;100.00
55916;BME280;41826;53.246;-6.670;2023-05-18T06:40:12;99925.16;;;12.16;100.00
55916;BME280;41826;53.246;-6.670;2023-05-18T06:42:37;99904.34;;;12.29;100.00
55916;BME280;41826;53.246;-6.670;2023-05-18T06:45:03;99903.81;;;12.10;100.00
55916;BME280;41826;53.246;-6.670;2023-05-18T06:47:28;99891.19;;;12.29;100.00
55916;BME280;41826;53.246;-6.670;2023-05-18T06:49:54;99898.16;;;12.45;100.00
55916;BME280;41826;53.246;-6.670;2023-05-18T06:52:20;99887.63;;;12.45;100.00
55916;BME280;41826;53.246;-6.670;2023-05-18T06:54:45;99877.81;;;12.62;100.00
55916;BME280;41826;53.246;-6.670;2023-05-18T06:57:10;99874.66;;;12.66;100.00
55916;BME280;41826;53.246;-6.670;2023-05-18T06:59:36;99841.28;;;12.96;100.00
55916;BME280;41826;53.246;-6.670;2023-05-18T07:02:03;99795.53;;;13.27;100.00
55916;BME280;41826;53.246;-6.670;2023-05-18T07:04:28;99771.06;;;13.33;100.00
55916;BME280;41826;53.246;-6.670;2023-05-18T07:06:53;99795.03;;;12.79;100.00
55916;BME280;41826;53.246;-6.670;2023-05-18T07:09:21;99812.66;;;12.55;100.00
55916;BME280;41826;53.246;-6.670;2023-05-18T07:11:47;99810.84;;;12.41;100.00
55916;BME280;41826;53.246;-6.670;2023-05-18T07:14:13;99823.59;;;12.29;100.00
55916;BME280;41826;53.246;-6.670;2023-05-18T07:16:38;99817.03;;;12.48;100.00
55916;BME280;41826;53.246;-6.670;2023-05-18T07:19:03;99812.34;;;12.58;100.00
55916;BME280;41826;53.246;-6.670;2023-05-18T07:21:29;99813.88;;;12.30;100.00
55916;BME280;41826;53.246;-6.670;2023-05-18T07:23:55;99818.44;;;12.36;100.00
55916;BME280;41826;53.246;-6.670;2023-05-18T07:26:21;99828.31;;;12.34;100.00
55916;BME280;41826;53.246;-6.670;2023-05-18T07:28:47;99817.03;;;12.63;100.00
55916;BME280;41826;53.246;-6.670;2023-05-18T07:31:12;99801.56;;;12.98;100.00
55916;BME280;41826;53.246;-6.670;2023-05-18T07:33:40;99806.47;;;13.16;100.00
55916;BME280;41826;53.246;-6.670;2023-05-18T07:36:06;99799.47;;;13.08;100.00
55916;BME280;41826;53.246;-6.670;2023-05-18T07:38:31;99775.78;;;13.74;100.00
55916;BME280;41826;53.246;-6.670;2023-05-18T07:40:57;99757.75;;;13.99;100.00
55916;BME280;41826;53.246;-6.670;2023-05-18T07:43:23;99761.16;;;13.93;100.00
55916;BME280;41826;53.246;-6.670;2023-05-18T07:45:49;99754.19;;;14.07;100.00
55916;BME280;41826;53.246;-6.670;2023-05-18T07:48:14;99755.69;;;14.16;100.00
55916;BME280;41826;53.246;-6.670;2023-05-18T07:50:40;99753.88;;;14.45;100.00
55916;BME280;41826;53.246;-6.670;2023-05-18T07:53:05;99758.22;;;14.81;100.00
55916;BME280;41826;53.246;-6.670;2023-05-18T07:55:31;99779.75;;;14.78;100.00
55916;BME280;41826;53.246;-6.670;2023-05-18T07:57:56;99793.81;;;15.20;100.00
55916;BME280;41826;53.246;-6.670;2023-05-18T08:00:22;99818.19;;;15.56;100.00
55916;BME280;41826;53.246;-6.670;2023-05-18T08:02:47;99858.22;;;15.47;100.00
55916;BME280;41826;53.246;-6.670;2023-05-18T08:05:13;99909.28;;;15.12;100.00
55916;BME280;41826;53.246;-6.670;2023-05-18T08:07:38;99923.28;;;15.34;100.00
55916;BME280;41826;53.246;-6.670;2023-05-18T08:10:04;99937.94;;;15.37;100.00
55916;BME280;41826;53.246;-6.670;2023-05-18T08:12:29;99924.06;;;14.57;100.00
55916;BME280;41826;53.246;-6.670;2023-05-18T08:14:55;99887.84;;;14.15;100.00
55916;BME280;41826;53.246;-6.670;2023-05-18T08:17:21;99848.31;;;14.43;100.00
55916;BME280;41826;53.246;-6.670;2023-05-18T08:19:47;99836.09;;;14.57;100.00
55916;BME280;41826;53.246;-6.670;2023-05-18T08:22:13;99835.13;;;14.43;100.00
55916;BME280;41826;53.246;-6.670;2023-05-18T08:24:38;99814.81;;;15.28;100.00
55916;BME280;41826;53.246;-6.670;2023-05-18T08:27:04;99859.59;;;15.29;100.00
55916;BME280;41826;53.246;-6.670;2023-05-18T08:29:32;99917.72;;;15.57;100.00
55916;BME280;41826;53.246;-6.670;2023-05-18T08:31:58;99960.63;;;15.81;100.00
55916;BME280;41826;53.246;-6.670;2023-05-18T08:34:23;100007.16;;;16.10;100.00
55916;BME280;41826;53.246;-6.670;2023-05-18T08:36:51;99994.91;;;16.02;100.00
55916;BME280;41826;53.246;-6.670;2023-05-18T08:39:17;100071.50;;;16.39;100.00
55916;BME280;41826;53.246;-6.670;2023-05-18T08:44:24;100141.16;;;16.74;100.00
55916;BME280;41826;53.246;-6.670;2023-05-18T08:46:50;100202.19;;;16.53;100.00
55916;BME280;41826;53.246;-6.670;2023-05-18T08:49:22;100148.16;;;16.12;100.00
55916;BME280;41826;53.246;-6.670;2023-05-18T08:51:56;100148.34;;;16.45;100.00
55916;BME280;41826;53.246;-6.670;2023-05-18T08:54:25;100164.56;;;17.05;100.00
55916;BME280;41826;53.246;-6.670;2023-05-18T08:56:51;100245.63;;;16.52;100.00
55916;BME280;41826;53.246;-6.670;2023-05-18T08:59:25;100309.94;;;16.67;100.00
55916;BME280;41826;53.246;-6.670;2023-05-18T09:01:51;100295.66;;;17.31;100.00
55916;BME280;41826;53.246;-6.670;2023-05-18T09:04:19;100322.53;;;17.63;100.00
55916;BME280;41826;53.246;-6.670;2023-05-18T09:06:46;100475.84;;;17.89;100.00
55916;BME280;41826;53.246;-6.670;2023-05-18T09:09:13;100485.94;;;18.07;100.00
55916;BME280;41826;53.246;-6.670;2023-05-18T09:11:38;100516.72;;;17.94;100.00
55916;BME280;41826;53.246;-6.670;2023-05-18T09:14:04;100605.91;;;17.82;100.00
55916;BME280;41826;53.246;-6.670;2023-05-18T09:16:30;100591.28;;;16.79;100.00
55916;BME280;41826;53.246;-6.670;2023-05-18T09:18:56;100419.97;;;17.69;100.00
55916;BME280;41826;53.246;-6.670;2023-05-18T09:21:21;100498.06;;;17.81;100.00
55916;BME280;41826;53.246;-6.670;2023-05-18T09:23:47;100600.63;;;18.17;100.00
55916;BME280;41826;53.246;-6.670;2023-05-18T09:26:12;100699.53;;;17.11;100.00
55916;BME280;41826;53.246;-6.670;2023-05-18T09:28:38;100716.34;;;17.19;100.00
55916;BME280;41826;53.246;-6.670;2023-05-18T09:31:06;100661.38;;;17.70;100.00
55916;BME280;41826;53.246;-6.670;2023-05-18T09:33:35;100524.56;;;18.09;100.00
55916;BME280;41826;53.246;-6.670;2023-05-18T09:36:03;100643.66;;;17.77;100.00
55916;BME280;41826;53.246;-6.670;2023-05-18T09:38:29;100481.69;;;17.77;100.00
55916;BME280;41826;53.246;-6.670;2023-05-18T09:40:54;100526.31;;;17.32;100.00
55916;BME280;41826;53.246;-6.670;2023-05-18T09:43:20;100474.09;;;18.09;100.00
55916;BME280;41826;53.246;-6.670;2023-05-18T09:45:48;100550.91;;;18.52;100.00
55916;BME280;41826;53.246;-6.670;2023-05-18T09:48:15;100714.28;;;17.72;100.00
55916;BME280;41826;53.246;-6.670;2023-05-18T09:50:42;100635.97;;;17.18;100.00
55916;BME280;41826;53.246;-6.670;2023-05-18T09:53:09;100660.84;;;17.17;100.00
55916;BME280;41826;53.246;-6.670;2023-05-18T09:55:48;100671.16;;;17.27;100.00
55916;BME280;41826;53.246;-6.670;2023-05-18T09:58:14;100719.00;;;17.76;100.00
55916;BME280;41826;53.246;-6.670;2023-05-18T10:00:42;100737.75;;;17.90;100.00
55916;BME280;41826;53.246;-6.670;2023-05-18T10:03:21;100812.34;;;17.07;100.00
55916;BME280;41826;53.246;-6.670;2023-05-18T10:05:47;100689.31;;;17.66;100.00
55916;BME280;41826;53.246;-6.670;2023-05-18T10:08:14;100645.56;;;17.84;100.00
55916;BME280;41826;53.246;-6.670;2023-05-18T10:10:43;100567.66;;;17.98;100.00
55916;BME280;41826;53.246;-6.670;2023-05-18T10:13:11;100701.50;;;18.04;100.00
55916;BME280;41826;53.246;-6.670;2023-05-18T10:15:49;100679.47;;;18.10;100.00
55916;BME280;41826;53.246;-6.670;2023-05-18T10:18:26;100725.72;;;18.44;100.00
55916;BME280;41826;53.246;-6.670;2023-05-18T10:20:53;100673.81;;;18.82;100.00
55916;BME280;41826;53.246;-6.670;2023-05-18T10:23:21;100585.69;;;19.19;100.00
55916;BME280;41826;53.246;-6.670;2023-05-18T10:25:48;100802.09;;;19.26;100.00
55916;BME280;41826;53.246;-6.670;2023-05-18T10:28:18;100821.56;;;19.26;100.00
55916;BME280;41826;53.246;-6.670;2023-05-18T10:30:45;101034.97;;;18.51;100.00
55916;BME280;41826;53.246;-6.670;2023-05-18T10:33:12;101040.38;;;17.91;100.00
55916;BME280;41826;53.246;-6.670;2023-05-18T10:35:40;100860.97;;;17.59;100.00
55916;BME280;41826;53.246;-6.670;2023-05-18T10:38:08;100541.06;;;18.94;100.00
55916;BME280;41826;53.246;-6.670;2023-05-18T10:40:34;100793.88;;;18.79;100.00
55916;BME280;41826;53.246;-6.670;2023-05-18T10:43:01;100998.34;;;18.68;100.00
55916;BME280;41826;53.246;-6.670;2023-05-18T10:45:28;101066.81;;;18.29;100.00
55916;BME280;41826;53.246;-6.670;2023-05-18T10:47:53;100993.97;;;18.24;100.00
55916;BME280;41826;53.246;-6.670;2023-05-18T10:50:21;100822.41;;;18.92;100.00
55916;BME280;41826;53.246;-6.670;2023-05-18T10:52:47;101073.97;;;18.29;100.00
55916;BME280;41826;53.246;-6.670;2023-05-18T10:55:14;101011.13;;;18.06;100.00
55916;BME280;41826;53.246;-6.670;2023-05-18T10:57:45;100834.16;;;18.27;100.00
55916;BME280;41826;53.246;-6.670;2023-05-18T11:00:11;100967.22;;;18.10;100.00
55916;BME280;41826;53.246;-6.670;2023-05-18T11:02:41;101007.53;;;17.40;100.00
55916;BME280;41826;53.246;-6.670;2023-05-18T11:05:08;100956.69;;;17.13;100.00
55916;BME280;41826;53.246;-6.670;2023-05-18T11:07:34;101018.22;;;17.08;100.00
55916;BME280;41826;53.246;-6.670;2023-05-18T11:10:02;100983.50;;;17.18;100.00
55916;BME280;41826;53.246;-6.670;2023-05-18T11:12:31;100942.28;;;16.93;100.00
55916;BME280;41826;53.246;-6.670;2023-05-18T11:14:58;100778.03;;;17.57;100.00
55916;BME280;41826;53.246;-6.670;2023-05-18T11:17:27;100497.00;;;18.72;100.00
55916;BME280;41826;53.246;-6.670;2023-05-18T11:23:00;100657.72;;;19.11;100.00
55916;BME280;41826;53.246;-6.670;2023-05-18T11:27:53;100903.63;;;18.24;100.00
55916;BME280;41826;53.246;-6.670;2023-05-18T11:33:07;100856.25;;;17.40;100.00
55916;BME280;41826;53.246;-6.670;2023-05-18T11:35:33;100943.91;;;17.61;100.00
55916;BME280;41826;53.246;-6.670;2023-05-18T11:38:07;101134.53;;;17.89;100.00
55916;BME280;41826;53.246;-6.670;2023-05-18T11:40:49;101112.63;;;17.87;100.00
55916;BME280;41826;53.246;-6.670;2023-05-18T11:43:24;101160.19;;;17.73;100.00
55916;BME280;41826;53.246;-6.670;2023-05-18T11:45:55;101135.53;;;16.96;100.00
55916;BME280;41826;53.246;-6.670;2023-05-18T11:48:30;100989.03;;;17.46;100.00
55916;BME280;41826;53.246;-6.670;2023-05-18T11:50:56;100899.41;;;17.63;100.00
55916;BME280;41826;53.246;-6.670;2023-05-18T11:53:22;100919.56;;;17.87;100.00
55916;BME280;41826;53.246;-6.670;2023-05-18T11:55:52;100936.53;;;18.66;100.00
55916;BME280;41826;53.246;-6.670;2023-05-18T11:58:24;101203.88;;;18.61;100.00
55916;BME280;41826;53.246;-6.670;2023-05-18T12:00:50;101137.00;;;18.50;100.00
55916;BME280;41826;53.246;-6.670;2023-05-18T12:03:16;101224.09;;;18.33;100.00
55916;BME280;41826;53.246;-6.670;2023-05-18T12:05:42;101311.84;;;18.48;100.00
55916;BME280;41826;53.246;-6.670;2023-05-18T12:08:22;101351.09;;;18.00;100.00
55916;BME280;41826;53.246;-6.670;2023-05-18T12:10:53;101362.47;;;17.77;100.00
55916;BME280;41826;53.246;-6.670;2023-05-18T12:13:19;101172.78;;;18.47;100.00
55916;BME280;41826;53.246;-6.670;2023-05-18T12:15:47;100937.88;;;19.61;100.00
55916;BME280;41826;53.246;-6.670;2023-05-18T12:18:12;101212.44;;;19.66;100.00
55916;BME280;41826;53.246;-6.670;2023-05-18T12:20:39;101173.16;;;20.24;100.00
55916;BME280;41826;53.246;-6.670;2023-05-18T12:23:05;101229.28;;;20.44;100.00
55916;BME280;41826;53.246;-6.670;2023-05-18T12:25:30;101209.75;;;20.65;100.00
55916;BME280;41826;53.246;-6.670;2023-05-18T12:27:56;101217.31;;;20.62;100.00
55916;BME280;41826;53.246;-6.670;2023-05-18T12:30:26;101320.00;;;20.72;100.00
55916;BME280;41826;53.246;-6.670;2023-05-18T12:32:59;101444.94;;;19.89;100.00
55916;BME280;41826;53.246;-6.670;2023-05-18T12:35:27;101432.00;;;19.27;100.00
55916;BME280;41826;53.246;-6.670;2023-05-18T12:37:54;101364.31;;;18.54;100.00
55916;BME280;41826;53.246;-6.670;2023-05-18T12:40:20;101229.06;;;19.10;100.00
55916;BME280;41826;53.246;-6.670;2023-05-18T12:42:57;101268.53;;;19.07;100.00
55916;BME280;41826;53.246;-6.670;2023-05-18T12:45:31;101186.31;;;20.26;100.00
55916;BME280;41826;53.246;-6.670;2023-05-18T12:48:07;101502.50;;;19.46;100.00
55916;BME280;41826;53.246;-6.670;2023-05-18T12:50:33;101484.03;;;19.44;100.00
55916;BME280;41826;53.246;-6.670;2023-05-18T12:52:59;101533.13;;;18.89;100.00
55916;BME280;41826;53.246;-6.670;2023-05-18T12:55:25;101523.06;;;18.45;100.00
55916;BME280;41826;53.246;-6.670;2023-05-18T12:58:00;101490.41;;;18.59;100.00
55916;BME280;41826;53.246;-6.670;2023-05-18T13:00:30;101413.28;;;18.59;100.00